ěÝzenÝ letovÚho provozu ╚eskÚ republiky
Letiste: LKTB Aktualizace: 07.07.2020 15:00:26  UTC
 METAR LKTB 07.07. 15:00 ...
METAR LKTB 071500Z 34010KT 310V010 CAVOK 19/07 Q1019 NOSIG RMK REG QNH 1017=
 TAF LKTB 07.07. 11:00 ...
TAF LKTB 071100Z 0712/0818 30008KT CAVOK      TEMPO 0712/0715 36010G20KT      BECMG 0717/0719 VRB02KT      BECMG 0806/0809 20010KT      BECMG 0811/0814 32010KT BKN036      TEMPO 0816/0818 -RA=